Time;durP1;ratioP1;P1;durP2;ratioP2;P2;SDS_P1;SDS_P2;PMS_P1;PMS_P2;Temp;Humidity;BMP_temperature;BMP_pressure;BME280_temperature;BME280_humidity;BME280_pressure;Samples;Min_cycle;Max_cycle;Signal;HPM_P1;HPM_P2
2022/12/22 03:30:09;;;;;;;0.20;0.20;;;;;;;-145.06;100.00;60892.56;5800424;23;20011;-92
2022/12/22 04:12:53;;;;;;;0.10;0.10;;;;;;;-145.06;100.00;60892.56;5918502;23;20025;-90
2022/12/22 04:12:57;;;;;;;0.40;0.20;;;;;;;-145.06;100.00;60892.56;5907262;23;20014;-90
2022/12/22 04:15:44;;;;;;;0.13;0.10;;;;;;;-145.06;100.00;60892.56;5891705;23;20010;-91
2022/12/22 04:18:28;;;;;;;0.52;0.22;;;;;;;-145.06;100.00;60892.56;5863538;23;20014;-90
2022/12/22 04:21:20;;;;;;;0.20;0.20;;;;;;;-145.06;100.00;60892.56;5862845;23;20272;-90
2022/12/22 04:27:32;;;;;;;0.25;0.20;;;;;;;-145.06;100.00;60892.56;5893771;23;20030;-89
2022/12/22 04:30:12;;;;;;;0.25;0.25;;;;;;;-145.06;100.00;60892.56;5862888;23;20006;-89
2022/12/22 04:32:51;;;;;;;;;;;;;;;-145.06;100.00;60892.56;5862260;23;20006;-90
2022/12/22 04:35:37;;;;;;;0.10;0.10;;;;;;;-145.06;100.00;60892.56;5862377;23;19913;-89
2022/12/22 04:38:30;;;;;;;0.20;0.20;;;;;;;-145.06;100.00;60892.56;5862366;23;20326;-90
2022/12/22 04:41:18;;;;;;;0.20;0.20;;;;;;;-145.06;100.00;60892.56;5861848;23;20006;-90
2022/12/22 04:44:00;;;;;;;0.20;0.20;;;;;;;-145.06;100.00;60892.56;5862049;23;20025;-89
2022/12/22 04:46:45;;;;;;;0.38;0.20;;;;;;;-145.06;100.00;60892.56;5861694;23;20007;-89
2022/12/22 04:49:25;;;;;;;0.20;0.20;;;;;;;-145.06;100.00;60892.56;5861388;23;20087;-90
2022/12/22 04:52:04;;;;;;;0.40;0.17;;;;;;;-145.06;100.00;60892.56;5863159;23;20018;-90
2022/12/22 04:54:48;;;;;;;0.20;0.20;;;;;;;-145.06;100.00;60892.56;5863023;23;20010;-90
2022/12/22 04:57:36;;;;;;;0.20;0.20;;;;;;;-145.06;100.00;60892.56;5863597;23;20433;-91
2022/12/22 05:00:36;;;;;;;0.20;0.20;;;;;;;-145.06;100.00;60892.56;5862309;23;20445;-91
2022/12/22 05:03:24;;;;;;;;;;;;;;;-145.06;100.00;60892.56;5864276;23;20006;-91
2022/12/22 05:09:27;;;;;;;0.10;0.10;;;;;;;-145.06;100.00;60892.56;5894174;23;20011;-90
2022/12/22 05:17:01;;;;;;;0.20;0.20;;;;;;;-145.06;100.00;60892.56;5754966;24;20017;-89
2022/12/22 05:20:06;;;;;;;0.20;0.20;;;;;;;-145.06;100.00;60892.56;5748502;24;20008;-91
2022/12/22 05:22:46;;;;;;;0.28;0.20;;;;;;;-145.06;100.00;60892.56;5750825;24;20009;-90
2022/12/22 05:25:25;;;;;;;0.30;0.30;;;;;;;-145.06;100.00;60892.56;5749673;24;20000;-90
2022/12/22 05:28:04;;;;;;;0.40;0.40;;;;;;;-145.06;100.00;60892.56;5840151;23;20022;-90
2022/12/22 05:30:43;;;;;;;0.40;0.30;;;;;;;-145.06;100.00;60892.56;5861769;23;20673;-90
2022/12/22 05:33:25;;;;;;;0.47;0.28;;;;;;;-145.06;100.00;60892.56;5863773;23;20238;-90
2022/12/22 05:36:05;;;;;;;0.45;0.30;;;;;;;-145.06;100.00;60892.56;5863864;23;20505;-91
2022/12/22 05:38:44;;;;;;;0.45;0.32;;;;;;;-145.06;100.00;60892.56;5865500;23;20509;-91
2022/12/22 05:41:23;;;;;;;0.28;0.28;;;;;;;-145.06;100.00;60892.56;5896342;23;20010;-90
2022/12/22 05:44:02;;;;;;;0.37;0.30;;;;;;;-145.06;100.00;60892.56;5864733;23;20425;-89
2022/12/22 05:46:41;;;;;;;0.30;0.22;;;;;;;-145.06;100.00;60892.56;5895857;23;20003;-89
2022/12/22 05:49:20;;;;;;;0.30;0.30;;;;;;;-145.06;100.00;60892.56;5864478;23;20441;-90
2022/12/22 05:51:59;;;;;;;0.30;0.30;;;;;;;-145.06;100.00;60892.56;5864773;23;20553;-90
2022/12/22 05:54:38;;;;;;;0.30;0.30;;;;;;;-145.06;100.00;60892.56;5865282;23;20238;-90
2022/12/22 05:57:20;;;;;;;0.47;0.40;;;;;;;-145.06;100.00;60892.56;5884806;23;20006;-90
2022/12/22 06:00:05;;;;;;;0.55;0.40;;;;;;;-145.06;100.00;60892.56;5865183;23;20010;-90
2022/12/22 06:02:45;;;;;;;0.22;0.22;;;;;;;-145.06;100.00;60892.56;5865603;23;20011;-89
2022/12/22 06:05:24;;;;;;;0.43;0.30;;;;;;;-145.06;100.00;60892.56;5866825;23;20010;-90
2022/12/22 06:08:04;;;;;;;0.95;0.43;;;;;;;-145.06;100.00;60892.56;5866579;23;20592;-91
2022/12/22 06:10:43;;;;;;;0.30;0.28;;;;;;;-145.06;100.00;60892.56;5866848;23;20073;-90
2022/12/22 06:13:23;;;;;;;0.30;0.30;;;;;;;-145.06;100.00;60892.56;5865644;23;20002;-92
2022/12/22 06:16:02;;;;;;;;;;;;;;;-145.06;100.00;60892.56;5863206;23;20349;-90
2022/12/22 06:18:41;;;;;;;0.60;0.38;;;;;;;-145.06;100.00;60892.56;5860207;23;20205;-91
2022/12/22 06:21:22;;;;;;;0.50;0.40;;;;;;;-145.06;100.00;60892.56;5865639;23;20038;-91
2022/12/22 06:24:03;;;;;;;0.57;0.40;;;;;;;-145.06;100.00;60892.56;5864456;23;20700;-88
2022/12/22 06:26:42;;;;;;;0.28;0.22;;;;;;;-145.06;100.00;60892.56;5864205;23;20427;-88
2022/12/22 06:29:21;;;;;;;0.50;0.47;;;;;;;-145.06;100.00;60892.56;5864818;23;20010;-90
2022/12/22 06:32:00;;;;;;;0.33;0.33;;;;;;;-145.06;100.00;60892.56;5864580;23;20022;-91
2022/12/22 06:34:40;;;;;;;0.50;0.38;;;;;;;-145.06;100.00;60892.56;5864160;23;20273;-89
2022/12/22 06:37:19;;;;;;;0.40;0.40;;;;;;;-145.06;100.00;60892.56;5863495;23;20042;-90
2022/12/22 06:39:57;;;;;;;0.30;0.30;;;;;;;-145.06;100.00;60892.56;5863884;23;20239;-89
2022/12/22 06:45:37;;;;;;;0.30;0.30;;;;;;;-145.06;100.00;60892.56;5895621;23;20007;-90
2022/12/22 06:48:16;;;;;;;0.35;0.35;;;;;;;-145.06;100.00;60892.56;5884632;23;20090;-89
2022/12/22 06:50:58;;;;;;;0.47;0.40;;;;;;;-145.06;100.00;60892.56;5864272;23;20011;-90
2022/12/22 06:53:37;;;;;;;0.28;0.28;;;;;;;-145.06;100.00;60892.56;5864242;23;20006;-89
2022/12/22 06:56:16;;;;;;;0.40;0.33;;;;;;;-145.06;100.00;60892.56;5863875;23;20033;-90
2022/12/22 06:58:55;;;;;;;0.65;0.40;;;;;;;-145.06;100.00;60892.56;5893766;23;20728;-91
2022/12/22 07:01:34;;;;;;;0.40;0.40;;;;;;;-145.06;100.00;60892.56;5863399;23;20037;-90
2022/12/22 07:04:18;;;;;;;0.90;0.40;;;;;;;-145.06;100.00;60892.56;5863498;23;20015;-91
2022/12/22 07:06:57;;;;;;;0.20;0.20;;;;;;;-145.06;100.00;60892.56;5863383;23;20266;-90
2022/12/22 07:09:36;;;;;;;0.30;0.30;;;;;;;-145.06;100.00;60892.56;5893904;23;20022;-91
2022/12/22 07:12:15;;;;;;;0.60;0.50;;;;;;;-145.06;100.00;60892.56;5894477;23;20425;-91
2022/12/22 07:14:55;;;;;;;0.70;0.43;;;;;;;-145.06;100.00;60892.56;5865006;23;20014;-92
2022/12/22 07:17:44;;;;;;;0.82;0.65;;;;;;;-145.06;100.00;60892.56;5865856;23;20010;-91
2022/12/22 07:20:23;;;;;;;0.95;0.40;;;;;;;-145.06;100.00;60892.56;5886137;23;20010;-91
2022/12/22 07:23:02;;;;;;;0.40;0.40;;;;;;;-145.06;100.00;60892.56;5897231;23;20011;-92
2022/12/22 07:25:41;;;;;;;0.30;0.30;;;;;;;-145.06;100.00;60892.56;5867089;23;20006;-90
2022/12/22 07:28:20;;;;;;;0.77;0.57;;;;;;;-145.06;100.00;60892.56;5865504;23;20015;-91
2022/12/22 07:30:59;;;;;;;0.60;0.50;;;;;;;-145.06;100.00;60892.56;5848340;23;20018;-89
2022/12/22 07:33:39;;;;;;;1.03;0.70;;;;;;;-145.06;100.00;60892.56;5868379;23;20014;-89
2022/12/22 07:36:19;;;;;;;0.90;0.60;;;;;;;-145.06;100.00;60892.56;5864153;23;20254;-89
2022/12/22 07:38:58;;;;;;;0.50;0.50;;;;;;;-145.06;100.00;60892.56;5864686;23;20311;-90
2022/12/22 07:44:35;;;;;;;0.60;0.60;;;;;;;-145.06;100.00;60892.56;5895519;23;20014;-90
2022/12/22 07:47:14;;;;;;;1.35;1.00;;;;;;;-145.06;100.00;60892.56;5864714;23;20006;-90
2022/12/22 07:52:51;;;;;;;1.08;0.90;;;;;;;-145.06;100.00;60892.56;5895782;23;20010;-90
2022/12/22 07:55:34;;;;;;;0.80;0.80;;;;;;;-145.06;100.00;60892.56;5864452;23;20319;-89
2022/12/22 07:58:14;;;;;;;1.27;0.80;;;;;;;-145.06;100.00;60892.56;5895388;23;20019;-90
2022/12/22 08:00:57;;;;;;;1.13;0.97;;;;;;;-145.06;100.00;60892.56;5864332;23;20010;-89
2022/12/22 08:03:36;;;;;;;1.92;0.90;;;;;;;-145.06;100.00;60892.56;5863921;23;20010;-90
2022/12/22 08:06:15;;;;;;;1.15;0.93;;;;;;;-145.06;100.00;60892.56;5864259;23;20002;-91
2022/12/22 08:08:54;;;;;;;1.02;0.93;;;;;;;-145.06;100.00;60892.56;5864435;23;20018;-89
2022/12/22 08:11:33;;;;;;;0.80;0.80;;;;;;;-145.06;100.00;60892.56;5896136;23;20085;-90
2022/12/22 08:14:13;;;;;;;1.35;1.25;;;;;;;-145.06;100.00;60892.56;5865312;23;20238;-90
2022/12/22 08:16:51;;;;;;;1.67;1.10;;;;;;;-145.06;100.00;60892.56;5863771;23;20010;-91
2022/12/22 08:19:41;;;;;;;1.38;1.20;;;;;;;-145.06;100.00;60892.56;5864512;23;20010;-90
2022/12/22 08:22:22;;;;;;;1.98;1.50;;;;;;;-145.06;100.00;60892.56;5868019;23;20493;-91
2022/12/22 08:25:02;;;;;;;1.80;1.58;;;;;;;-145.06;100.00;60892.56;5888492;23;20326;-90
2022/12/22 08:27:47;;;;;;;1.50;1.40;;;;;;;-145.06;100.00;60892.56;5867169;23;20419;-91
2022/12/22 08:30:26;;;;;;;1.83;1.35;;;;;;;-145.06;100.00;60892.56;5866249;23;20085;-91
2022/12/22 08:33:06;;;;;;;1.40;1.30;;;;;;;-145.06;100.00;60892.56;5868075;23;20006;-91
2022/12/22 08:36:04;;;;;;;2.05;1.77;;;;;;;-145.06;100.00;60892.56;5888987;23;20338;-91
2022/12/22 08:39:46;;;;;;;1.67;1.50;;;;;;;-145.06;100.00;60892.56;5866964;23;20303;-92
2022/12/22 08:43:27;;;;;;;;;;;;;;;;;;;;;
2022/12/22 08:46:25;;;;;;;2.05;1.83;;;;;;;-145.06;100.00;60892.56;5756882;24;20008;-91
2022/12/22 08:49:33;;;;;;;2.50;2.15;;;;;;;-145.06;100.00;60892.56;5847897;23;20437;-91
2022/12/22 08:52:13;;;;;;;2.35;2.10;;;;;;;-145.06;100.00;60892.56;5867038;23;20006;-89
2022/12/22 08:55:52;;;;;;;2.50;2.05;;;;;;;-145.06;100.00;60892.56;5868020;23;20006;-91
2022/12/22 08:58:37;;;;;;;3.80;2.65;;;;;;;-145.06;100.00;60892.56;5868543;23;20113;-91
2022/12/22 09:01:20;;;;;;;2.75;2.15;;;;;;;-145.06;100.00;60892.56;5869664;23;20010;-91
2022/12/22 09:04:27;;;;;;;2.83;2.25;;;;;;;-145.06;100.00;60892.56;5868795;23;20010;-90
2022/12/22 09:07:10;;;;;;;2.75;2.25;;;;;;;-145.06;100.00;60892.56;5867457;23;20002;-90
2022/12/22 09:09:49;;;;;;;3.17;2.35;;;;;;;-145.06;100.00;60892.56;5889836;23;20010;-91
2022/12/22 09:12:34;;;;;;;2.40;2.03;;;;;;;-145.06;100.00;60892.56;5869885;23;20030;-91
2022/12/22 09:15:13;;;;;;;2.70;2.33;;;;;;;-145.06;100.00;60892.56;5869665;23;20006;-92
2022/12/22 09:17:52;;;;;;;1.88;1.67;;;;;;;-145.06;100.00;60892.56;5868900;23;20006;-91
2022/12/22 09:20:41;;;;;;;2.07;1.87;;;;;;;-145.06;100.00;60892.56;5869051;23;20034;-92
2022/12/22 09:23:23;;;;;;;2.58;2.17;;;;;;;-145.06;100.00;60892.56;5868177;23;20010;-91
2022/12/22 09:26:58;;;;;;;2.60;2.10;;;;;;;-145.06;100.00;60892.56;5869005;23;20030;-91
2022/12/22 09:29:46;;;;;;;2.15;1.83;;;;;;;-145.06;100.00;60892.56;5867070;23;20077;-91
2022/12/22 09:32:30;;;;;;;3.25;2.17;;;;;;;-145.06;100.00;60892.56;5868801;23;20006;-91
2022/12/22 09:41:49;;;;;;;;;;;;;;;;;;;;;
2022/12/22 09:55:36;;;;;;;3.47;2.55;;;;;;;-145.06;100.00;60892.56;5926686;23;20018;-91
2022/12/22 10:02:27;;;;;;;3.38;2.63;;;;;;;-145.06;100.00;60892.56;5901664;23;20037;-90
2022/12/22 10:05:28;;;;;;;3.63;2.80;;;;;;;-145.06;100.00;60892.56;5916762;23;20066;-91
2022/12/22 10:08:52;;;;;;;3.60;2.55;;;;;;;-145.06;100.00;60892.56;5916477;23;20440;-91
2022/12/22 10:11:34;;;;;;;3.83;2.80;;;;;;;-145.06;100.00;60892.56;5919254;23;20002;-92
2022/12/22 10:14:54;;;;;;;3.80;2.83;;;;;;;-145.06;100.00;60892.56;5928502;23;20097;-91
2022/12/22 10:17:42;;;;;;;4.13;3.08;;;;;;;-145.06;100.00;60892.56;5896156;23;20073;-91
2022/12/22 10:21:04;;;;;;;;;;;;;;;;;;;;;
2022/12/22 10:30:44;;;;;;;4.15;3.35;;;;;;;-145.06;100.00;60892.56;5898265;23;20457;-90
2022/12/22 10:33:38;;;;;;;4.57;3.40;;;;;;;-145.06;100.00;60892.56;5919567;23;20037;-91
2022/12/22 10:36:57;;;;;;;4.75;3.40;;;;;;;-145.06;100.00;60892.56;5919859;23;20009;-90
2022/12/22 10:39:39;;;;;;;4.03;2.95;;;;;;;-145.06;100.00;60892.56;5920301;23;20010;-91
2022/12/22 10:43:38;;;;;;;;;;;;;;;;;;;;;
2022/12/22 10:48:48;;;;;;;4.28;3.35;;;;;;;-145.06;100.00;60892.56;5976899;23;20096;-92
2022/12/22 10:55:25;;;;;;;4.63;2.97;;;;;;;-145.06;100.00;60892.56;5987181;23;20036;-92
2022/12/22 10:58:15;;;;;;;3.58;2.92;;;;;;;-145.06;100.00;60892.56;5955483;23;20012;-91
2022/12/22 11:01:47;;;;;;;3.55;2.83;;;;;;;-145.06;100.00;60892.56;5955471;23;20069;-90
2022/12/22 11:05:04;;;;;;;;;;;;;;;;;;;;;
2022/12/22 11:07:46;;;;;;;5.20;3.80;;;;;;;-145.06;100.00;60892.56;5985953;23;20005;-91
2022/12/22 11:10:46;;;;;;;5.15;3.05;;;;;;;-145.06;100.00;60892.56;5953862;23;20333;-90
2022/12/22 11:13:56;;;;;;;;;;;;;;;;;;;;;
2022/12/22 11:17:18;;;;;;;7.93;4.97;;;;;;;-145.06;100.00;60892.56;5971599;23;20010;-90
2022/12/22 11:21:01;;;;;;;5.68;4.15;;;;;;;-145.06;100.00;60892.56;5897605;23;20084;-90
2022/12/22 11:24:23;;;;;;;4.60;3.38;;;;;;;-145.06;100.00;60892.56;5896896;23;20441;-92
2022/12/22 11:31:15;;;;;;;5.32;3.67;;;;;;;-145.06;100.00;60892.56;5928348;23;20033;-91
2022/12/22 11:34:39;;;;;;;4.43;3.28;;;;;;;-145.06;100.00;60892.56;5897223;23;20676;-89
2022/12/22 11:38:06;;;;;;;4.88;3.40;;;;;;;-145.06;100.00;60892.56;5896208;23;20406;-91
2022/12/22 11:45:37;;;;;;;6.75;4.45;;;;;;;-145.06;100.00;60892.56;5836395;23;20033;-91
2022/12/22 12:00:30;;;;;;;4.10;2.95;;;;;;;-145.06;100.00;60892.56;5929356;23;20552;-90
2022/12/22 12:03:47;;;;;;;4.95;3.40;;;;;;;-145.06;100.00;60892.56;5897206;23;20025;-90
2022/12/22 12:13:28;;;;;;;3.42;2.35;;;;;;;-145.06;100.00;60892.56;5851853;23;20598;-91
2022/12/22 12:36:53;;;;;;;3.78;2.53;;;;;;;-145.06;100.00;60892.56;5922213;23;20006;-89
2022/12/22 12:40:02;;;;;;;3.58;2.33;;;;;;;-145.06;100.00;60892.56;5975286;23;20009;-91
2022/12/22 12:42:54;;;;;;;3.17;2.17;;;;;;;-145.06;100.00;60892.56;5954345;23;20001;-88
2022/12/22 12:50:04;;;;;;;2.28;1.50;;;;;;;-145.06;100.00;60892.56;5985828;23;20008;-90
2022/12/22 12:53:54;;;;;;;;;;;;;;;;;;;;;
2022/12/22 12:57:27;;;;;;;2.40;1.67;;;;;;;-145.06;100.00;60892.56;5948010;23;20013;-90
2022/12/22 13:05:10;;;;;;;2.13;1.65;;;;;;;-145.06;100.00;60892.56;5969969;23;20037;-90
2022/12/22 13:08:41;;;;;;;2.33;1.88;;;;;;;-145.06;100.00;60892.56;5838934;23;20007;-91
2022/12/22 13:12:49;;;;;;;1.90;1.50;;;;;;;-145.06;100.00;60892.56;5839922;23;20006;-90
2022/12/22 13:18:58;;;;;;;;;;;;;;;-145.06;100.00;60892.56;5760015;24;20012;-89
2022/12/22 13:47:29;;;;;;;;;;;;;;;;;;;;;
2022/12/22 13:54:28;;;;;;;0.80;0.57;;;;;;;-145.06;100.00;60892.56;5927219;23;20030;-88
2022/12/22 14:01:14;;;;;;;;;;;;;;;;;;;;;
2022/12/22 14:04:10;;;;;;;0.52;0.52;;;;;;;-145.06;100.00;60892.56;5929171;23;20026;-89
2022/12/22 14:10:49;;;;;;;0.77;0.60;;;;;;;-145.06;100.00;60892.56;5788449;24;20015;-90
2022/12/22 14:14:24;;;;;;;;;;;;;;;;;;;;;
2022/12/22 16:00:31;;;;;;;0.20;0.20;;;;;;;-145.06;100.00;60892.56;5937159;23;20016;-89
2022/12/22 16:17:28;;;;;;;;;;;;;;;;;;;;;
2022/12/22 16:28:09;;;;;;;0.38;0.30;;;;;;;-145.06;100.00;60892.56;5755186;24;20016;-90
2022/12/22 16:31:28;;;;;;;1.33;0.63;;;;;;;-145.06;100.00;60892.56;5752556;24;20008;-89
2022/12/22 16:34:39;;;;;;;1.40;0.55;;;;;;;-145.06;100.00;60892.56;5894610;23;20440;-91
2022/12/22 16:37:42;;;;;;;;;;;;;;;;;;;;;
2022/12/22 16:41:09;;;;;;;1.63;0.60;;;;;;;-145.06;100.00;60892.56;5926895;23;20014;-91
2022/12/22 16:47:35;;;;;;;1.38;0.43;;;;;;;-145.06;100.00;60892.56;5781218;24;20008;-91
2022/12/22 16:50:33;;;;;;;1.67;0.60;;;;;;;-145.06;100.00;60892.56;5764545;23;20730;-91
2022/12/22 16:53:15;;;;;;;1.35;0.60;;;;;;;-145.06;100.00;60892.56;5890940;23;20010;-91
2022/12/22 16:56:51;;;;;;;;;;;;;;;;;;;;;
2022/12/22 17:07:34;;;;;;;;;;;;;;;;;;;;;
2022/12/22 17:10:49;;;;;;;1.83;0.65;;;;;;;-145.06;100.00;60892.56;5921069;23;20543;-91
2022/12/22 17:14:55;;;;;;;0.98;0.43;;;;;;;-145.06;100.00;60892.56;5884366;23;20005;-91
2022/12/22 17:32:14;;;;;;;;;;;;;;;;;;;;;
2022/12/22 17:35:04;;;;;;;1.88;0.70;;;;;;;-145.06;100.00;60892.56;5920706;23;20162;-92
2022/12/22 17:37:47;;;;;;;3.53;1.20;;;;;;;-145.06;100.00;60892.56;5894288;23;20528;-89
2022/12/22 17:40:29;;;;;;;4.65;0.80;;;;;;;-145.06;100.00;60892.56;5891537;23;20042;-90
2022/12/22 17:43:19;;;;;;;3.22;0.93;;;;;;;-145.06;100.00;60892.56;5892242;23;20013;-91
2022/12/22 17:45:59;;;;;;;1.27;0.63;;;;;;;-145.06;100.00;60892.56;5892853;23;20006;-90
2022/12/22 17:48:41;;;;;;;2.40;1.08;;;;;;;-145.06;100.00;60892.56;5848972;23;20336;-92
2022/12/22 17:51:25;;;;;;;2.95;0.98;;;;;;;11.51;100.00;60892.56;5837799;23;20006;-91
2022/12/22 17:54:10;;;;;;;4.15;1.23;;;;;;;-145.06;100.00;60892.56;5837883;23;20011;-92
2022/12/22 17:56:56;;;;;;;4.88;1.00;;;;;;;-145.06;100.00;60892.56;5838195;23;20011;-90
2022/12/22 17:59:36;;;;;;;8.18;1.80;;;;;;;-145.06;100.00;60892.56;5839053;23;20307;-92
2022/12/22 18:02:20;;;;;;;4.90;1.50;;;;;;;-145.06;100.00;60892.56;5837919;23;20070;-90
2022/12/22 18:04:59;;;;;;;4.85;1.17;;;;;;;-145.06;100.00;60892.56;5836789;23;20011;-91
2022/12/22 18:07:38;;;;;;;5.77;1.87;;;;;;;-145.06;100.00;60892.56;5835644;23;20003;-91
2022/12/22 18:10:38;;;;;;;6.25;1.38;;;;;;;11.82;100.00;60892.56;5833119;23;20019;-91
2022/12/22 18:13:25;;;;;;;3.75;1.20;;;;;;;11.70;100.00;60892.56;5839024;23;20007;-90
2022/12/22 18:16:04;;;;;;;5.50;1.05;;;;;;;11.98;100.00;60892.56;5838292;23;20035;-90
2022/12/22 18:18:55;;;;;;;3.80;1.10;;;;;;;11.98;100.00;60892.56;5837056;23;20084;-92
2022/12/22 18:25:35;;;;;;;5.68;1.30;;;;;;;13.28;100.00;60892.56;5869814;23;20010;-91
2022/12/22 18:35:25;;;;;;;3.60;1.30;;;;;;;-145.06;100.00;60892.56;5870659;23;20011;-91
2022/12/22 18:38:49;;;;;;;3.97;1.30;;;;;;;-145.06;100.00;60892.56;5840138;23;20323;-92
2022/12/22 18:41:53;;;;;;;4.78;1.50;;;;;;;-145.06;100.00;60892.56;5757746;23;20603;-92
2022/12/22 18:44:32;;;;;;;5.47;1.42;;;;;;;-145.06;100.00;60892.56;5839018;23;20090;-93
2022/12/22 18:47:17;;;;;;;3.63;1.52;;;;;;;-145.06;100.00;60892.56;5838374;23;20007;-91
2022/12/22 18:50:01;;;;;;;6.50;1.77;;;;;;;-145.06;100.00;60892.56;5838562;23;20010;-91
2022/12/22 18:52:47;;;;;;;3.13;1.30;;;;;;;-145.06;100.00;60892.56;5838804;23;20015;-91
2022/12/22 18:55:29;;;;;;;4.93;1.40;;;;;;;-145.06;100.00;60892.56;5837784;23;20006;-90
2022/12/22 18:58:13;;;;;;;4.70;1.52;;;;;;;-145.06;100.00;60892.56;5867367;23;20015;-90
2022/12/22 19:00:58;;;;;;;4.75;1.27;;;;;;;-145.06;100.00;60892.56;5832865;23;20011;-91
2022/12/22 19:04:05;;;;;;;6.40;1.50;;;;;;;-145.06;100.00;60892.56;5827848;23;20014;-91
2022/12/22 19:07:02;;;;;;;5.22;1.40;;;;;;;-145.06;100.00;60892.56;5831223;23;20007;-91
2022/12/22 19:09:44;;;;;;;5.05;1.48;;;;;;;-145.06;100.00;60892.56;5831508;23;20043;-91
2022/12/22 19:12:23;;;;;;;5.15;1.73;;;;;;;-145.06;100.00;60892.56;5832227;23;20019;-91
2022/12/22 19:15:17;;;;;;;4.60;1.45;;;;;;;-145.06;100.00;60892.56;5837392;23;20011;-92
2022/12/22 19:17:57;;;;;;;4.15;1.60;;;;;;;-145.06;100.00;60892.56;5858937;23;20019;-91
2022/12/22 19:21:03;;;;;;;4.95;1.60;;;;;;;-145.06;100.00;60892.56;5837509;23;20192;-89
2022/12/22 19:23:42;;;;;;;3.97;1.52;;;;;;;-145.06;100.00;60892.56;5833016;23;20018;-90
2022/12/22 19:26:24;;;;;;;5.85;1.52;;;;;;;-145.06;100.00;60892.56;5837522;23;20015;-90
2022/12/22 19:29:08;;;;;;;3.67;1.50;;;;;;;-145.06;100.00;60892.56;5837835;23;20014;-91
2022/12/22 19:31:50;;;;;;;3.15;0.80;;;;;;;-145.06;100.00;60892.56;5837512;23;20015;-89
2022/12/22 19:34:35;;;;;;;2.88;1.02;;;;;;;-145.06;100.00;60892.56;5837528;23;20011;-89
2022/12/22 19:37:15;;;;;;;3.63;1.00;;;;;;;-145.06;100.00;60892.56;5834200;23;20007;-89
2022/12/22 19:40:20;;;;;;;3.08;0.90;;;;;;;-145.06;100.00;60892.56;5837488;23;20003;-89
2022/12/22 19:43:11;;;;;;;2.50;1.02;;;;;;;-145.06;100.00;60892.56;5837541;23;20011;-90
2022/12/22 19:45:53;;;;;;;5.05;1.45;;;;;;;-145.06;100.00;60892.56;5838081;23;20003;-90
2022/12/22 19:48:46;;;;;;;2.58;0.60;;;;;;;-145.06;100.00;60892.56;5835815;23;20085;-90
2022/12/22 19:51:30;;;;;;;1.52;0.75;;;;;;;-145.06;100.00;60892.56;5838062;23;20006;-89
2022/12/22 19:54:09;;;;;;;1.83;0.70;;;;;;;-145.06;100.00;60892.56;5837505;23;20030;-90
2022/12/22 20:00:15;;;;;;;2.65;0.52;;;;;;;-145.06;100.00;60892.56;5853090;23;20015;-91
2022/12/22 20:02:58;;;;;;;2.25;0.90;;;;;;;-145.06;100.00;60892.56;5836849;23;20011;-90
2022/12/22 20:05:38;;;;;;;3.78;0.80;;;;;;;-145.06;100.00;60892.56;5838428;23;20937;-89
2022/12/22 20:08:17;;;;;;;1.88;0.60;;;;;;;-145.06;100.00;60892.56;5834204;23;20527;-89
2022/12/22 20:10:58;;;;;;;1.17;0.52;;;;;;;-145.06;100.00;60892.56;5835545;23;20010;-89
2022/12/22 20:13:58;;;;;;;1.70;0.82;;;;;;;-145.06;100.00;60892.56;5835997;23;20374;-88
2022/12/22 20:16:37;;;;;;;2.42;0.70;;;;;;;-145.06;100.00;60892.56;5834910;23;20010;-92
2022/12/22 20:19:16;;;;;;;3.20;1.02;;;;;;;-145.06;100.00;60892.56;5835091;23;20070;-91
2022/12/22 20:21:56;;;;;;;2.13;0.77;;;;;;;-145.06;100.00;60892.56;5835512;23;20252;-91
2022/12/22 20:24:38;;;;;;;2.87;0.90;;;;;;;-145.06;100.00;60892.56;5834950;23;20462;-91
2022/12/22 20:27:25;;;;;;;2.75;1.02;;;;;;;-145.06;100.00;60892.56;5834744;23;20010;-91
2022/12/22 20:30:06;;;;;;;2.92;0.80;;;;;;;-145.06;100.00;60892.56;5865389;23;20019;-91
2022/12/22 20:32:55;;;;;;;0.82;0.47;;;;;;;-145.06;100.00;60892.56;5835739;23;20330;-92
2022/12/22 20:35:38;;;;;;;2.90;0.95;;;;;;;-145.06;100.00;60892.56;5836325;23;20014;-90
2022/12/22 20:38:22;;;;;;;1.30;0.68;;;;;;;-145.06;100.00;60892.56;5836869;23;20010;-91
2022/12/22 20:41:06;;;;;;;4.00;1.10;;;;;;;-145.06;100.00;60892.56;5837399;23;20010;-88
2022/12/22 20:43:45;;;;;;;1.95;0.60;;;;;;;-145.06;100.00;60892.56;5839135;23;20032;-89
2022/12/22 20:46:27;;;;;;;1.13;0.60;;;;;;;-145.06;100.00;60892.56;5839155;23;20010;-90
2022/12/22 20:49:13;;;;;;;1.08;0.55;;;;;;;-145.06;100.00;60892.56;5840658;23;20042;-89
2022/12/22 20:51:52;;;;;;;0.75;0.30;;;;;;;-145.06;100.00;60892.56;5850199;23;20034;-89
2022/12/22 20:54:31;;;;;;;0.82;0.45;;;;;;;-145.06;100.00;60892.56;5838901;23;20006;-90
2022/12/22 20:57:15;;;;;;;1.63;0.60;;;;;;;-145.06;100.00;60892.56;5836867;23;20378;-91
2022/12/22 20:59:54;;;;;;;0.88;0.40;;;;;;;-145.06;100.00;60892.56;5836727;23;20007;-90
2022/12/22 21:02:35;;;;;;;1.65;0.55;;;;;;;-145.06;100.00;60892.56;5835635;23;20015;-90
2022/12/22 21:05:16;;;;;;;1.15;0.60;;;;;;;-145.06;100.00;60892.56;5835955;23;20596;-90
2022/12/22 21:07:54;;;;;;;;;;;;;;;-145.06;100.00;60892.56;5836407;23;20010;-90
2022/12/22 21:10:37;;;;;;;1.23;0.50;;;;;;;-145.06;100.00;60892.56;5836050;23;19905;-90
2022/12/22 21:13:19;;;;;;;0.43;0.30;;;;;;;-145.06;100.00;60892.56;5836851;23;20010;-90
2022/12/22 21:15:57;;;;;;;0.95;0.50;;;;;;;-145.06;100.00;60892.56;5837666;23;20007;-88
2022/12/22 21:18:37;;;;;;;1.10;0.50;;;;;;;-145.06;100.00;60892.56;5837640;23;20007;-90
2022/12/22 21:21:16;;;;;;;1.02;0.43;;;;;;;-145.06;100.00;60892.56;5837424;23;20011;-90
2022/12/22 21:23:59;;;;;;;1.20;0.50;;;;;;;-145.06;100.00;60892.56;5837410;23;20034;-90
2022/12/22 21:26:46;;;;;;;0.70;0.30;;;;;;;-145.06;100.00;60892.56;5837179;23;20006;-89
2022/12/22 21:29:29;;;;;;;1.02;0.50;;;;;;;-145.06;100.00;60892.56;5837042;23;20011;-89
2022/12/22 21:32:13;;;;;;;0.85;0.32;;;;;;;-145.06;100.00;60892.56;5836850;23;20327;-89
2022/12/22 21:34:52;;;;;;;1.10;0.50;;;;;;;-145.06;100.00;60892.56;5836999;23;20006;-90
2022/12/22 21:37:34;;;;;;;1.17;0.40;;;;;;;-145.06;100.00;60892.56;5836156;23;20003;-89
2022/12/22 21:40:19;;;;;;;0.60;0.40;;;;;;;-145.06;100.00;60892.56;5837329;23;20007;-91
2022/12/22 21:43:08;;;;;;;0.30;0.30;;;;;;;-145.06;100.00;60892.56;5837644;23;20010;-90
2022/12/22 21:49:06;;;;;;;0.45;0.35;;;;;;;-145.06;100.00;60892.56;5868055;23;20601;-90
2022/12/22 21:52:19;;;;;;;1.05;0.40;;;;;;;-145.06;100.00;60892.56;5837223;23;20003;-89
2022/12/22 21:54:58;;;;;;;0.40;0.30;;;;;;;-145.06;100.00;60892.56;5837765;23;20007;-89
2022/12/22 21:58:13;;;;;;;0.73;0.50;;;;;;;-145.06;100.00;60892.56;5837602;23;20011;-90
2022/12/22 22:01:31;;;;;;;1.50;0.30;;;;;;;-145.06;100.00;60892.56;5838074;23;20446;-90
2022/12/22 22:04:36;;;;;;;0.55;0.35;;;;;;;-145.06;100.00;60892.56;5837013;23;20015;-91
2022/12/22 22:08:02;;;;;;;0.60;0.32;;;;;;;-145.06;100.00;60892.56;5837752;23;20003;-89
2022/12/22 22:10:43;;;;;;;1.75;0.40;;;;;;;-145.06;100.00;60892.56;5815774;23;20590;-91
2022/12/22 22:13:24;;;;;;;1.33;0.52;;;;;;;-145.06;100.00;60892.56;5838092;23;20006;-90
2022/12/22 22:16:32;;;;;;;0.50;0.40;;;;;;;-145.06;100.00;60892.56;5839219;23;20007;-91
2022/12/22 22:19:16;;;;;;;0.85;0.50;;;;;;;-145.06;100.00;60892.56;5840034;23;20010;-91
2022/12/22 22:22:20;;;;;;;;;;;;;;;;;;;;;
2022/12/22 22:25:46;;;;;;;0.40;0.38;;;;;;;-145.06;100.00;60892.56;5871337;23;20010;-90
2022/12/22 22:33:07;;;;;;;;;;;;;;;;;;;;;
2022/12/22 22:35:46;;;;;;;0.30;0.30;;;;;;;-145.06;100.00;60892.56;5870569;23;20018;-90
2022/12/22 22:38:58;;;;;;;0.57;0.40;;;;;;;-145.06;100.00;60892.56;5840349;23;20030;-90
2022/12/22 22:42:10;;;;;;;0.60;0.38;;;;;;;-145.06;100.00;60892.56;5838608;23;20007;-90
2022/12/22 22:44:54;;;;;;;1.02;0.50;;;;;;;-145.06;100.00;60892.56;5862860;23;20011;-90
2022/12/22 22:47:41;;;;;;;1.35;0.38;;;;;;;-145.06;100.00;60892.56;5841157;23;20317;-92
2022/12/22 22:54:35;;;;;;;1.50;0.40;;;;;;;-145.06;100.00;60892.56;5668602;24;20443;-92
2022/12/22 22:57:38;;;;;;;;;;;;;;;;;;;;;
2022/12/22 23:00:22;;;;;;;1.17;0.50;;;;;;;-145.06;100.00;60892.56;5870949;23;20007;-91
2022/12/22 23:06:20;;;;;;;;;;;;;;;;;;;;;